createdAt,value
2018-06-05T00:00:24.308Z,6.90
2018-06-05T00:03:26.378Z,6.20
2018-06-05T00:06:28.456Z,6.13
2018-06-05T00:09:31.430Z,7.07
2018-06-05T00:12:33.519Z,6.57
2018-06-05T00:15:36.703Z,6.90
2018-06-05T00:18:38.672Z,6.70
2018-06-05T00:21:40.733Z,6.93
2018-06-05T00:24:42.788Z,7.33
2018-06-05T00:27:44.880Z,7.10
2018-06-05T00:30:47.087Z,6.73
2018-06-05T00:33:49.108Z,7.67
2018-06-05T00:36:51.291Z,7.60
2018-06-05T00:39:53.383Z,7.57
2018-06-05T00:42:55.463Z,7.37
2018-06-05T00:45:57.483Z,7.40
2018-06-05T00:48:59.531Z,6.87
2018-06-05T00:52:07.785Z,6.90
2018-06-05T00:55:09.831Z,7.20
2018-06-05T00:58:11.938Z,7.30
2018-06-05T01:01:15.526Z,7.90
2018-06-05T01:04:17.700Z,7.03
2018-06-05T01:07:22.150Z,7.00
2018-06-05T01:10:24.291Z,7.80
2018-06-05T01:13:26.368Z,7.37
2018-06-05T01:16:32.614Z,7.10
2018-06-05T01:19:34.683Z,7.73
2018-06-05T01:22:37.990Z,7.50
2018-06-05T01:25:40.063Z,7.60
2018-06-05T01:28:42.115Z,8.17
2018-06-05T01:31:44.183Z,7.97
2018-06-05T01:34:47.318Z,8.10
2018-06-05T01:37:49.356Z,8.30
2018-06-05T01:40:51.551Z,7.70
2018-06-05T01:43:53.599Z,8.20
2018-06-05T01:46:55.654Z,8.33
2018-06-05T01:49:57.726Z,8.53
2018-06-05T01:52:59.827Z,8.50
2018-06-05T01:56:01.865Z,7.43
2018-06-05T01:59:03.979Z,8.20
2018-06-05T02:02:08.066Z,8.57
2018-06-05T02:05:10.115Z,8.13
2018-06-05T02:08:12.181Z,9.17
2018-06-05T02:11:14.250Z,8.73
2018-06-05T02:14:17.366Z,7.73
2018-06-05T02:17:19.335Z,8.20
2018-06-05T02:20:21.420Z,9.10
2018-06-05T02:23:25.391Z,8.57
2018-06-05T02:26:27.476Z,9.00
2018-06-05T02:29:29.448Z,8.53
2018-06-05T02:32:31.516Z,8.97
2018-06-05T02:35:33.705Z,8.60
2018-06-05T02:38:35.758Z,8.50
2018-06-05T02:41:38.727Z,8.40
2018-06-05T02:44:40.800Z,8.40
2018-06-05T02:47:42.880Z,8.83
2018-06-05T02:50:44.936Z,8.03
2018-06-05T02:53:47.056Z,8.63
2018-06-05T02:56:49.206Z,8.83
2018-06-05T02:59:51.253Z,8.60
2018-06-05T03:02:53.335Z,8.50
2018-06-05T03:05:55.388Z,8.63
2018-06-05T03:08:57.446Z,8.87
2018-06-05T03:11:59.543Z,9.50
2018-06-05T03:15:01.585Z,9.50
2018-06-05T03:18:03.539Z,8.83
2018-06-05T03:21:08.673Z,8.83
2018-06-05T03:24:10.779Z,9.07
2018-06-05T03:27:12.820Z,9.30
2018-06-05T03:30:14.771Z,9.23
2018-06-05T03:33:16.869Z,9.70
2018-06-05T03:36:18.924Z,9.70
2018-06-05T03:39:21.039Z,9.90
2018-06-05T03:42:23.075Z,9.50
2018-06-05T03:45:25.160Z,10.30
2018-06-05T03:48:27.211Z,9.90
2018-06-05T03:51:29.257Z,9.63
2018-06-05T03:54:31.343Z,9.77
2018-06-05T03:57:33.444Z,8.40
2018-06-05T04:00:35.483Z,9.27
2018-06-05T04:03:38.409Z,9.60
2018-06-05T04:06:40.441Z,9.93
2018-06-05T04:09:42.509Z,9.63
2018-06-05T04:12:44.563Z,9.30
2018-06-05T04:15:46.534Z,9.43
2018-06-05T04:18:49.638Z,10.53
2018-06-05T04:21:51.683Z,10.00
2018-06-05T04:24:53.650Z,9.70
2018-06-05T04:27:55.715Z,9.87
2018-06-05T04:30:57.837Z,10.40
2018-06-05T04:33:59.866Z,9.23
2018-06-05T04:37:01.984Z,11.20
2018-06-05T04:40:04.119Z,11.67
2018-06-05T04:43:06.102Z,11.70
2018-06-05T04:46:09.303Z,12.57
2018-06-05T04:49:11.307Z,11.43
2018-06-05T04:52:13.437Z,11.67
2018-06-05T04:55:15.483Z,12.17
2018-06-05T04:58:17.848Z,13.23
2018-06-05T05:01:19.921Z,12.23
2018-06-05T05:04:21.946Z,11.60
2018-06-05T05:07:24.161Z,13.27
2018-06-05T05:10:26.226Z,12.40
2018-06-05T05:13:28.287Z,13.00
2018-06-05T05:16:30.396Z,12.57
2018-06-05T05:19:32.421Z,12.43
2018-06-05T05:22:34.388Z,13.07
2018-06-05T05:25:36.474Z,13.23
2018-06-05T05:28:39.367Z,13.03
2018-06-05T05:31:41.451Z,13.90
2018-06-05T05:34:43.493Z,13.30
2018-06-05T05:37:45.602Z,12.30
2018-06-05T05:40:47.639Z,12.37
2018-06-05T05:43:49.640Z,13.07
2018-06-05T05:46:51.655Z,13.77
2018-06-05T05:49:53.739Z,12.87
2018-06-05T05:52:55.802Z,12.40
2018-06-05T05:55:57.778Z,12.50
2018-06-05T05:58:59.842Z,13.27
2018-06-05T06:02:01.997Z,12.47
2018-06-05T06:05:04.318Z,12.97
2018-06-05T06:08:06.366Z,13.13
2018-06-05T06:11:09.684Z,12.57
2018-06-05T06:14:11.749Z,12.13
2018-06-05T06:17:13.700Z,12.60
2018-06-05T06:20:15.763Z,12.20
2018-06-05T06:23:18.858Z,11.50
2018-06-05T06:26:20.940Z,12.10
2018-06-05T06:29:22.867Z,11.80
2018-06-05T06:32:24.975Z,11.70
2018-06-05T06:35:27.237Z,11.90
2018-06-05T06:38:29.302Z,12.07
2018-06-05T06:41:31.252Z,11.50
2018-06-05T06:44:33.416Z,11.47
2018-06-05T06:47:35.511Z,11.80
2018-06-05T06:50:37.579Z,11.33
2018-06-05T06:53:40.354Z,11.63
2018-06-05T06:56:42.432Z,11.30
2018-06-05T06:59:44.507Z,11.00
2018-06-05T07:02:46.506Z,11.43
2018-06-05T07:05:48.781Z,10.83
2018-06-05T07:08:50.811Z,10.70
2018-06-05T07:11:52.874Z,11.17
2018-06-05T07:14:54.938Z,11.53
2018-06-05T07:17:56.861Z,11.17
2018-06-05T07:20:59.000Z,10.90
2018-06-05T07:24:01.071Z,11.00
2018-06-05T07:27:03.198Z,11.07
2018-06-05T07:30:05.327Z,12.53
2018-06-05T07:33:07.362Z,11.33
2018-06-05T07:36:10.554Z,11.17
2018-06-05T07:39:12.611Z,11.20
2018-06-05T07:42:14.716Z,12.37
2018-06-05T07:45:16.763Z,13.97
2018-06-05T07:48:18.828Z,12.20
2018-06-05T07:51:20.886Z,12.07
2018-06-05T07:54:22.978Z,12.33
2018-06-05T07:57:25.016Z,12.30
2018-06-05T08:00:27.027Z,12.17
2018-06-05T08:03:29.217Z,11.40
2018-06-05T08:06:31.239Z,11.97
2018-06-05T08:09:33.286Z,12.03
2018-06-05T08:12:35.247Z,10.50
2018-06-05T08:15:37.372Z,11.27
2018-06-05T08:18:40.190Z,12.03
2018-06-05T08:21:42.486Z,12.63
2018-06-05T08:24:44.594Z,11.20
2018-06-05T08:27:46.629Z,10.50
2018-06-05T08:30:48.735Z,11.00
2018-06-05T08:33:52.432Z,10.20
2018-06-05T08:36:54.615Z,10.73
2018-06-05T08:39:56.701Z,11.63
2018-06-05T08:43:00.832Z,11.67
2018-06-05T08:46:02.841Z,10.50
2018-06-05T08:49:04.925Z,11.20
2018-06-05T08:52:06.998Z,10.27
2018-06-05T08:55:10.304Z,10.93
2018-06-05T08:58:12.742Z,10.73
2018-06-05T09:01:14.845Z,11.43
2018-06-05T09:04:17.944Z,11.20
2018-06-05T09:07:19.966Z,10.77
2018-06-05T09:10:22.077Z,11.50
2018-06-05T09:13:24.055Z,11.73
2018-06-05T09:16:26.110Z,11.33
2018-06-05T09:19:28.146Z,11.63
2018-06-05T09:22:31.383Z,11.20
2018-06-05T09:25:33.559Z,12.07
2018-06-05T09:28:35.778Z,10.33
2018-06-05T09:31:37.885Z,10.60
2018-06-05T09:34:40.023Z,10.67
2018-06-05T09:37:42.003Z,11.10
2018-06-05T09:40:44.058Z,10.87
2018-06-05T09:43:46.158Z,10.67
2018-06-05T09:46:48.240Z,11.70
2018-06-05T09:49:50.398Z,10.50
2018-06-05T09:52:52.435Z,11.00
2018-06-05T09:55:54.575Z,11.30
2018-06-05T09:58:56.690Z,11.40
2018-06-05T10:01:58.693Z,10.63
2018-06-05T10:05:01.883Z,10.60
2018-06-05T10:08:04.930Z,11.57
2018-06-05T10:11:07.061Z,11.03
2018-06-05T10:14:09.123Z,10.87
2018-06-05T10:17:11.227Z,11.33
2018-06-05T10:20:13.179Z,11.43
2018-06-05T10:23:15.298Z,11.53
2018-06-05T10:26:17.366Z,11.07
2018-06-05T10:29:20.431Z,10.97
2018-06-05T10:32:22.532Z,11.43
2018-06-05T10:35:24.471Z,11.37
2018-06-05T10:38:26.570Z,10.60
2018-06-05T10:41:28.739Z,11.20
2018-06-05T10:44:31.234Z,10.50
2018-06-05T10:47:33.401Z,10.70
2018-06-05T10:50:39.082Z,10.77
2018-06-05T10:53:41.260Z,10.80
2018-06-05T10:56:43.235Z,10.50
2018-06-05T10:59:45.347Z,10.23
2018-06-05T11:02:47.386Z,10.63
2018-06-05T11:05:50.494Z,10.40
2018-06-05T11:08:52.406Z,10.80
2018-06-05T11:11:54.427Z,10.60
2018-06-05T11:14:56.479Z,9.73
2018-06-05T11:18:00.668Z,10.30
2018-06-05T11:21:02.623Z,9.90
2018-06-05T11:24:05.859Z,9.77
2018-06-05T11:27:07.918Z,9.87
2018-06-05T11:30:09.962Z,9.57
2018-06-05T11:33:11.966Z,10.17
2018-06-05T11:36:14.048Z,9.50
2018-06-05T11:39:16.159Z,9.80
2018-06-05T11:42:18.183Z,9.77
2018-06-05T11:45:20.276Z,9.93
2018-06-05T11:48:22.319Z,9.93
2018-06-05T11:51:24.416Z,9.30
2018-06-05T11:54:26.536Z,9.37
2018-06-05T11:57:29.748Z,9.10
2018-06-05T12:00:33.032Z,9.37
2018-06-05T12:03:35.134Z,8.60
2018-06-05T12:06:37.208Z,9.20
2018-06-05T12:09:39.245Z,8.63
2018-06-05T12:12:41.388Z,8.77
2018-06-05T12:15:43.531Z,8.63
2018-06-05T12:18:46.187Z,9.20
2018-06-05T12:21:48.231Z,9.10
2018-06-05T12:24:51.339Z,9.03
2018-06-05T12:27:53.411Z,8.97
2018-06-05T12:30:55.489Z,8.17
2018-06-05T12:33:57.578Z,8.90
2018-06-05T12:37:01.831Z,8.33
2018-06-05T12:40:03.860Z,8.23
2018-06-05T12:43:05.900Z,7.87
2018-06-05T12:46:08.275Z,8.10
2018-06-05T12:49:10.325Z,8.47
2018-06-05T12:52:13.329Z,8.40
2018-06-05T12:55:15.416Z,7.50
2018-06-05T12:58:17.554Z,8.13
2018-06-05T13:01:19.653Z,8.03
2018-06-05T13:04:21.716Z,7.63
2018-06-05T13:07:25.735Z,8.10
2018-06-05T13:10:27.747Z,7.40
2018-06-05T13:13:29.769Z,6.87
2018-06-05T13:16:32.898Z,8.80
2018-06-05T13:19:34.932Z,8.20
2018-06-05T13:22:37.128Z,8.10
2018-06-05T13:25:39.188Z,8.40
2018-06-05T13:28:41.347Z,8.10
2018-06-05T13:31:43.413Z,8.50
2018-06-05T13:34:49.864Z,8.70
2018-06-05T13:37:52.770Z,7.80
2018-06-05T13:40:54.815Z,8.03
2018-06-05T13:43:56.811Z,8.07
2018-06-05T13:46:59.526Z,7.93
2018-06-05T13:50:01.564Z,8.10
2018-06-05T13:53:03.601Z,8.47
2018-06-05T13:56:05.598Z,8.43
2018-06-05T13:59:07.697Z,7.60
2018-06-05T14:02:09.834Z,8.03
2018-06-05T14:05:11.960Z,7.77
2018-06-05T14:08:14.029Z,7.93
2018-06-05T14:11:16.448Z,8.03
2018-06-05T14:14:18.508Z,8.30
2018-06-05T14:17:20.527Z,7.50
2018-06-05T14:20:22.654Z,8.20
2018-06-05T14:23:24.712Z,8.00
2018-06-05T14:26:26.811Z,8.40
2018-06-05T14:29:29.811Z,8.20
2018-06-05T14:32:31.863Z,7.80
2018-06-05T14:35:34.146Z,8.03
2018-06-05T14:38:38.159Z,8.23
2018-06-05T14:41:40.334Z,7.93
2018-06-05T14:44:42.408Z,8.13
2018-06-05T14:47:48.213Z,7.83
2018-06-05T14:50:50.443Z,7.60
2018-06-05T14:53:52.991Z,8.30
2018-06-05T14:56:55.047Z,8.27
2018-06-05T14:59:58.151Z,7.80
2018-06-05T15:03:00.951Z,11.27
2018-06-05T15:06:03.145Z,8.97
2018-06-05T15:09:05.823Z,7.87
2018-06-05T15:12:07.855Z,9.50
2018-06-05T15:15:10.046Z,7.57
2018-06-05T15:18:12.116Z,7.83
2018-06-05T15:21:14.175Z,7.17
2018-06-05T15:24:16.332Z,7.43
2018-06-05T15:27:18.400Z,7.13
2018-06-05T15:30:20.457Z,6.80
2018-06-05T15:33:22.573Z,7.30
2018-06-05T15:36:24.614Z,7.20
2018-06-05T15:39:26.596Z,7.97
2018-06-05T15:42:29.583Z,7.63
2018-06-05T15:45:31.610Z,8.27
2018-06-05T15:48:33.671Z,7.63
2018-06-05T15:51:35.670Z,7.70
2018-06-05T15:54:37.740Z,7.23
2018-06-05T15:57:39.807Z,7.13
2018-06-05T16:00:41.865Z,6.73
2018-06-05T16:03:43.979Z,7.10
2018-06-05T16:06:46.060Z,7.47
2018-06-05T16:09:49.143Z,6.80
2018-06-05T16:12:51.297Z,7.17
2018-06-05T16:15:53.417Z,6.43
2018-06-05T16:18:55.417Z,7.33
2018-06-05T16:21:57.851Z,6.70
2018-06-05T16:25:01.177Z,6.80
2018-06-05T16:28:03.323Z,6.77
2018-06-05T16:31:05.356Z,6.73
2018-06-05T16:34:08.414Z,6.73
2018-06-05T16:37:10.489Z,6.50
2018-06-05T16:40:12.567Z,6.67
2018-06-05T16:43:14.613Z,6.50
2018-06-05T16:46:16.688Z,6.40
2018-06-05T16:49:18.828Z,6.77
2018-06-05T16:52:20.858Z,6.30
2018-06-05T16:55:23.008Z,6.53
2018-06-05T16:58:25.063Z,6.23
2018-06-05T17:01:27.128Z,6.20
2018-06-05T17:04:30.301Z,6.57
2018-06-05T17:07:32.287Z,6.73
2018-06-05T17:10:34.524Z,5.90
2018-06-05T17:13:36.624Z,5.93
2018-06-05T17:16:38.693Z,5.70
2018-06-05T17:19:40.670Z,5.67
2018-06-05T17:22:42.729Z,6.10
2018-06-05T17:25:44.839Z,5.90
2018-06-05T17:28:46.871Z,6.10
2018-06-05T17:31:48.947Z,6.03
2018-06-05T17:34:51.920Z,5.47
2018-06-05T17:37:54.014Z,5.53
2018-06-05T17:40:56.252Z,5.80
2018-06-05T17:43:58.226Z,5.83
2018-06-05T17:47:01.769Z,5.50
2018-06-05T17:50:03.839Z,5.97
2018-06-05T17:53:05.919Z,6.20
2018-06-05T17:56:07.954Z,5.33
2018-06-05T17:59:09.997Z,5.37
2018-06-05T18:02:12.240Z,5.07
2018-06-05T18:05:14.258Z,5.30
2018-06-05T18:08:16.416Z,5.23
2018-06-05T18:11:18.511Z,5.07
2018-06-05T18:14:20.551Z,5.17
2018-06-05T18:17:22.820Z,5.40
2018-06-05T18:20:24.936Z,4.67
2018-06-05T18:23:27.059Z,5.13
2018-06-05T18:26:30.084Z,4.87
2018-06-05T18:29:32.067Z,5.30
2018-06-05T18:32:34.115Z,5.10
2018-06-05T18:35:36.207Z,5.00
2018-06-05T18:38:38.404Z,5.13
2018-06-05T18:41:40.552Z,5.17
2018-06-05T18:44:42.611Z,4.63
2018-06-05T18:47:44.807Z,5.43
2018-06-05T18:50:47.131Z,5.23
2018-06-05T18:53:49.251Z,5.37
2018-06-05T18:56:51.302Z,5.27
2018-06-05T18:59:53.369Z,5.53
2018-06-05T19:02:56.449Z,5.23
2018-06-05T19:05:58.515Z,4.87
2018-06-05T19:09:01.740Z,5.33
2018-06-05T19:12:04.561Z,20.07
2018-06-05T19:15:06.642Z,8.97
2018-06-05T19:18:08.584Z,5.67
2018-06-05T19:21:10.781Z,9.40
2018-06-05T19:24:12.910Z,7.87
2018-06-05T19:27:15.105Z,6.27
2018-06-05T19:30:17.013Z,5.80
2018-06-05T19:33:19.066Z,5.77
2018-06-05T19:36:21.113Z,5.90
2018-06-05T19:39:26.970Z,6.20
2018-06-05T19:42:29.131Z,6.60
2018-06-05T19:45:32.539Z,6.13
2018-06-05T19:48:34.528Z,5.90
2018-06-05T19:51:36.747Z,5.93
2018-06-05T19:54:38.808Z,5.70
2018-06-05T19:57:40.950Z,5.63
2018-06-05T20:00:43.103Z,6.03
2018-06-05T20:03:45.226Z,5.87
2018-06-05T20:06:47.321Z,6.00
2018-06-05T20:09:49.445Z,5.60
2018-06-05T20:12:52.410Z,5.97
2018-06-05T20:15:54.501Z,5.90
2018-06-05T20:18:56.544Z,5.90
2018-06-05T20:22:02.439Z,6.00
2018-06-05T20:25:04.529Z,5.50
2018-06-05T20:28:06.647Z,5.33
2018-06-05T20:31:08.718Z,5.63
2018-06-05T20:34:10.836Z,5.63
2018-06-05T20:37:14.002Z,5.60
2018-06-05T20:40:16.053Z,6.23
2018-06-05T20:43:18.267Z,5.60
2018-06-05T20:46:20.291Z,6.27
2018-06-05T20:49:22.339Z,6.00
2018-06-05T20:52:24.416Z,6.03
2018-06-05T20:55:26.498Z,6.60
2018-06-05T20:58:28.563Z,6.00
2018-06-05T21:01:32.301Z,6.17
2018-06-05T21:04:34.331Z,5.93
2018-06-05T21:07:36.394Z,6.07
2018-06-05T21:10:38.497Z,6.37
2018-06-05T21:13:40.438Z,6.73
2018-06-05T21:16:42.511Z,5.93
2018-06-05T21:19:44.567Z,6.67
2018-06-05T21:22:46.647Z,6.87
2018-06-05T21:25:48.738Z,6.70
2018-06-05T21:28:50.779Z,6.83
2018-06-05T21:31:52.835Z,6.57
2018-06-05T21:34:54.895Z,6.80
2018-06-05T21:37:56.994Z,6.73
2018-06-05T21:40:59.058Z,6.50
2018-06-05T21:44:01.467Z,7.00
2018-06-05T21:47:03.730Z,6.93
2018-06-05T21:50:05.797Z,7.20
2018-06-05T21:53:07.933Z,6.77
2018-06-05T21:56:10.030Z,7.40
2018-06-05T21:59:12.086Z,7.67
2018-06-05T22:02:15.075Z,6.93
2018-06-05T22:05:17.220Z,7.10
2018-06-05T22:08:19.320Z,7.00
2018-06-05T22:11:22.397Z,7.60
2018-06-05T22:14:24.463Z,7.20
2018-06-05T22:17:26.543Z,7.13
2018-06-05T22:20:28.484Z,7.00
2018-06-05T22:23:30.567Z,7.33
2018-06-05T22:26:32.714Z,7.47
2018-06-05T22:29:34.647Z,7.10
2018-06-05T22:32:36.666Z,7.07
2018-06-05T22:35:38.743Z,7.23
2018-06-05T22:38:40.811Z,7.50
2018-06-05T22:41:42.897Z,7.57
2018-06-05T22:44:44.938Z,7.20
2018-06-05T22:47:46.996Z,7.63
2018-06-05T22:50:48.971Z,7.97
2018-06-05T22:53:51.063Z,7.27
2018-06-05T22:56:53.136Z,8.10
2018-06-05T22:59:55.223Z,7.80
2018-06-05T23:02:57.167Z,7.87
2018-06-05T23:05:59.250Z,8.17
2018-06-05T23:09:01.918Z,7.73
2018-06-05T23:12:03.991Z,7.87
2018-06-05T23:15:05.972Z,7.10
2018-06-05T23:18:08.012Z,8.10
2018-06-05T23:21:10.108Z,8.90
2018-06-05T23:24:12.148Z,8.37
2018-06-05T23:27:14.239Z,7.70
2018-06-05T23:30:16.215Z,8.60
2018-06-05T23:33:18.273Z,7.47
2018-06-05T23:36:20.335Z,8.17
2018-06-05T23:39:22.399Z,7.93
2018-06-05T23:42:24.479Z,8.40
2018-06-05T23:45:26.426Z,9.63
2018-06-05T23:48:29.514Z,9.13
2018-06-05T23:51:32.589Z,9.33
2018-06-05T23:54:34.658Z,8.83
2018-06-05T23:57:36.743Z,8.67
